createdAt,value
2018-09-30T00:00:34.902Z,7.70
2018-09-30T00:03:38.034Z,7.70
2018-09-30T00:06:41.153Z,7.70
2018-09-30T00:09:44.273Z,7.60
2018-09-30T00:12:47.353Z,7.60
2018-09-30T00:15:50.514Z,7.60
2018-09-30T00:18:53.657Z,7.50
2018-09-30T00:21:56.740Z,7.40
2018-09-30T00:25:05.247Z,7.30
2018-09-30T00:28:08.362Z,7.30
2018-09-30T00:31:11.738Z,7.30
2018-09-30T00:34:20.362Z,7.30
2018-09-30T00:37:23.506Z,7.30
2018-09-30T00:40:26.642Z,7.20
2018-09-30T00:43:29.746Z,7.10
2018-09-30T00:46:32.889Z,7.00
2018-09-30T00:49:36.010Z,7.00
2018-09-30T00:52:39.156Z,7.00
2018-09-30T00:55:42.237Z,7.00
2018-09-30T00:58:45.360Z,6.90
2018-09-30T01:01:48.476Z,6.90
2018-09-30T01:04:51.605Z,7.00
2018-09-30T01:07:54.721Z,7.00
2018-09-30T01:10:57.836Z,7.00
2018-09-30T01:14:00.958Z,6.90
2018-09-30T01:17:04.070Z,6.90
2018-09-30T01:20:07.182Z,6.90
2018-09-30T01:23:10.302Z,6.80
2018-09-30T01:26:13.431Z,6.80
2018-09-30T01:29:16.550Z,6.70
2018-09-30T01:32:19.699Z,6.60
2018-09-30T01:35:22.809Z,6.60
2018-09-30T01:38:26.025Z,6.50
2018-09-30T01:41:29.146Z,6.50
2018-09-30T01:44:32.258Z,6.60
2018-09-30T01:47:35.450Z,6.60
2018-09-30T01:50:38.597Z,6.60
2018-09-30T01:53:41.765Z,6.70
2018-09-30T01:56:44.878Z,6.70
2018-09-30T01:59:48.006Z,6.80
2018-09-30T02:02:51.103Z,6.80
2018-09-30T02:05:54.221Z,6.80
2018-09-30T02:08:57.302Z,6.80
2018-09-30T02:12:00.404Z,6.80
2018-09-30T02:15:03.544Z,6.80
2018-09-30T02:18:06.686Z,6.80
2018-09-30T02:21:09.808Z,6.80
2018-09-30T02:24:12.927Z,6.90
2018-09-30T02:27:16.057Z,6.90
2018-09-30T02:30:19.163Z,6.90
2018-09-30T02:33:22.434Z,6.90
2018-09-30T02:36:25.595Z,6.90
2018-09-30T02:39:28.699Z,6.90
2018-09-30T02:42:31.816Z,6.90
2018-09-30T02:45:34.935Z,6.90
2018-09-30T02:48:38.083Z,6.90
2018-09-30T02:51:41.191Z,6.80
2018-09-30T02:54:44.330Z,6.80
2018-09-30T02:57:47.527Z,6.70
2018-09-30T03:00:50.615Z,6.70
2018-09-30T03:03:53.730Z,6.70
2018-09-30T03:07:02.138Z,6.70
2018-09-30T03:10:05.225Z,6.60
2018-09-30T03:13:08.344Z,6.70
2018-09-30T03:16:11.418Z,6.70
2018-09-30T03:19:15.106Z,6.70
2018-09-30T03:22:18.258Z,6.60
2018-09-30T03:25:21.371Z,6.60
2018-09-30T03:28:24.515Z,6.50
2018-09-30T03:31:27.634Z,6.50
2018-09-30T03:34:30.798Z,6.50
2018-09-30T03:37:33.897Z,6.60
2018-09-30T03:40:37.027Z,6.70
2018-09-30T03:43:40.154Z,6.60
2018-09-30T03:46:43.402Z,6.50
2018-09-30T03:49:46.530Z,6.40
2018-09-30T03:52:49.642Z,6.30
2018-09-30T03:55:52.782Z,6.30
2018-09-30T03:58:55.989Z,6.40
2018-09-30T04:01:59.082Z,6.50
2018-09-30T04:05:02.254Z,6.40
2018-09-30T04:08:05.363Z,6.50
2018-09-30T04:11:08.535Z,6.40
2018-09-30T04:14:11.637Z,6.30
2018-09-30T04:17:14.873Z,6.30
2018-09-30T04:20:17.967Z,6.30
2018-09-30T04:23:21.073Z,6.40
2018-09-30T04:26:24.186Z,6.30
2018-09-30T04:29:27.325Z,6.30
2018-09-30T04:32:30.462Z,6.30
2018-09-30T04:35:33.570Z,6.30
2018-09-30T04:38:36.717Z,6.30
2018-09-30T04:41:39.866Z,6.30
2018-09-30T04:44:42.954Z,6.40
2018-09-30T04:47:46.055Z,6.40
2018-09-30T04:50:49.149Z,6.30
2018-09-30T04:53:52.300Z,6.40
2018-09-30T04:56:55.382Z,6.40
2018-09-30T04:59:58.495Z,6.50
2018-09-30T05:03:01.746Z,6.50
2018-09-30T05:06:04.838Z,6.40
2018-09-30T05:09:08.619Z,6.40
2018-09-30T05:12:11.730Z,6.40
2018-09-30T05:15:14.826Z,6.40
2018-09-30T05:18:17.972Z,6.30
2018-09-30T05:21:21.062Z,6.30
2018-09-30T05:24:24.195Z,6.30
2018-09-30T05:27:27.299Z,6.40
2018-09-30T05:30:30.405Z,6.40
2018-09-30T05:33:33.530Z,6.40
2018-09-30T05:36:36.694Z,6.40
2018-09-30T05:39:39.786Z,6.50
2018-09-30T05:42:42.910Z,6.50
2018-09-30T05:45:46.032Z,6.60
2018-09-30T05:48:49.155Z,7.50
2018-09-30T05:51:52.258Z,9.00
2018-09-30T05:54:55.353Z,10.50
2018-09-30T05:57:58.731Z,11.70
2018-09-30T06:01:02.008Z,12.70
2018-09-30T06:04:05.224Z,13.60
2018-09-30T06:07:08.284Z,14.60
2018-09-30T06:10:11.418Z,15.50
2018-09-30T06:13:14.544Z,16.10
2018-09-30T06:16:17.811Z,16.80
2018-09-30T06:19:20.906Z,17.30
2018-09-30T06:22:24.055Z,18.00
2018-09-30T06:25:27.206Z,18.60
2018-09-30T06:28:30.373Z,19.30
2018-09-30T06:31:33.491Z,19.60
2018-09-30T06:34:36.628Z,20.00
2018-09-30T06:37:39.998Z,20.50
2018-09-30T06:40:43.137Z,20.40
2018-09-30T06:43:52.990Z,20.60
2018-09-30T06:46:56.123Z,20.90
2018-09-30T06:50:00.342Z,21.00
2018-09-30T06:53:03.547Z,21.20
2018-09-30T06:56:06.708Z,21.90
2018-09-30T06:59:10.614Z,22.30
2018-09-30T07:02:13.718Z,22.70
2018-09-30T07:05:16.839Z,22.90
2018-09-30T07:08:19.990Z,23.00
2018-09-30T07:11:23.338Z,22.90
2018-09-30T07:14:26.486Z,23.00
2018-09-30T07:17:29.626Z,23.00
2018-09-30T07:20:32.739Z,23.30
2018-09-30T07:23:35.874Z,23.30
2018-09-30T07:26:38.961Z,23.10
2018-09-30T07:29:42.074Z,23.00
2018-09-30T07:32:45.191Z,22.90
2018-09-30T07:35:48.310Z,22.80
2018-09-30T07:38:51.446Z,22.90
2018-09-30T07:41:54.544Z,23.00
2018-09-30T07:44:57.755Z,22.90
2018-09-30T07:48:00.837Z,22.50
2018-09-30T07:51:03.945Z,22.50
2018-09-30T07:54:07.098Z,22.40
2018-09-30T07:57:10.215Z,22.30
2018-09-30T08:00:13.363Z,22.40
2018-09-30T08:03:16.482Z,22.60
2018-09-30T08:06:19.668Z,22.30
2018-09-30T08:09:22.730Z,22.60
2018-09-30T08:12:26.016Z,22.70
2018-09-30T08:15:29.126Z,22.70
2018-09-30T08:18:32.242Z,22.60
2018-09-30T08:21:35.354Z,22.50
2018-09-30T08:24:38.547Z,22.40
2018-09-30T08:27:41.627Z,22.30
2018-09-30T08:30:44.831Z,22.00
2018-09-30T08:33:47.919Z,21.90
2018-09-30T08:36:51.024Z,21.30
2018-09-30T08:39:54.184Z,20.90
2018-09-30T08:42:57.298Z,20.50
2018-09-30T08:46:00.895Z,19.60
2018-09-30T08:49:04.043Z,19.50
2018-09-30T08:52:07.238Z,19.30
2018-09-30T08:55:10.718Z,18.50
2018-09-30T08:58:14.021Z,18.40
2018-09-30T09:01:17.106Z,18.10
2018-09-30T09:04:20.219Z,18.00
2018-09-30T09:07:23.307Z,17.80
2018-09-30T09:10:26.454Z,17.60
2018-09-30T09:13:29.590Z,17.60
2018-09-30T09:16:32.714Z,17.30
2018-09-30T09:19:35.805Z,17.20
2018-09-30T09:22:38.969Z,17.10
2018-09-30T09:25:42.308Z,17.10
2018-09-30T09:28:45.399Z,17.20
2018-09-30T09:31:48.586Z,17.50
2018-09-30T09:34:51.677Z,17.70
2018-09-30T09:38:06.582Z,17.60
2018-09-30T09:41:09.886Z,17.50
2018-09-30T09:44:13.755Z,17.50
2018-09-30T09:47:17.953Z,17.70
2018-09-30T09:50:21.190Z,17.80
2018-09-30T09:53:24.350Z,17.90
2018-09-30T09:56:27.514Z,17.80
2018-09-30T09:59:31.632Z,17.80
2018-09-30T10:02:41.054Z,17.80
2018-09-30T10:05:44.435Z,17.80
2018-09-30T10:08:47.530Z,17.80
2018-09-30T10:11:50.647Z,17.90
2018-09-30T10:14:53.805Z,18.00
2018-09-30T10:17:57.025Z,18.00
2018-09-30T10:21:00.287Z,18.10
2018-09-30T10:24:03.430Z,18.10
2018-09-30T10:27:06.930Z,18.10
2018-09-30T10:30:10.074Z,18.10
2018-09-30T10:33:13.222Z,18.10
2018-09-30T10:36:16.329Z,18.00
2018-09-30T10:39:19.560Z,17.90
2018-09-30T10:42:22.574Z,17.90
2018-09-30T10:45:26.566Z,18.00
2018-09-30T10:48:29.711Z,17.90
2018-09-30T10:51:32.834Z,17.90
2018-09-30T10:54:35.926Z,18.00
2018-09-30T10:57:39.058Z,17.80
2018-09-30T11:00:42.169Z,17.60
2018-09-30T11:03:45.283Z,17.60
2018-09-30T11:06:48.586Z,17.50
2018-09-30T11:09:51.757Z,17.40
2018-09-30T11:12:54.854Z,17.40
2018-09-30T11:15:57.987Z,17.30
2018-09-30T11:19:01.114Z,17.30
2018-09-30T11:22:04.270Z,17.10
2018-09-30T11:25:07.437Z,17.00
2018-09-30T11:28:10.553Z,17.10
2018-09-30T11:31:13.643Z,17.10
2018-09-30T11:34:16.758Z,17.10
2018-09-30T11:37:19.873Z,17.00
2018-09-30T11:40:23.007Z,16.90
2018-09-30T11:43:26.119Z,16.70
2018-09-30T11:46:29.257Z,16.70
2018-09-30T11:49:32.389Z,16.70
2018-09-30T11:52:35.513Z,16.70
2018-09-30T11:55:38.674Z,16.60
2018-09-30T11:58:41.807Z,16.60
2018-09-30T12:01:44.969Z,16.50
2018-09-30T12:04:48.085Z,16.50
2018-09-30T12:07:51.220Z,16.50
2018-09-30T12:10:54.340Z,16.50
2018-09-30T12:13:57.471Z,16.50
2018-09-30T12:17:00.590Z,16.40
2018-09-30T12:20:03.744Z,16.30
2018-09-30T12:23:07.231Z,16.30
2018-09-30T12:26:10.369Z,16.30
2018-09-30T12:29:13.518Z,16.40
2018-09-30T12:32:16.614Z,16.40
2018-09-30T12:35:19.845Z,16.40
2018-09-30T12:38:22.998Z,16.50
2018-09-30T12:41:26.162Z,16.40
2018-09-30T12:44:29.334Z,16.50
2018-09-30T12:47:32.482Z,16.50
2018-09-30T12:50:35.620Z,16.50
2018-09-30T12:53:38.754Z,16.50
2018-09-30T12:56:41.885Z,16.50
2018-09-30T12:59:45.026Z,16.50
2018-09-30T13:02:48.214Z,16.40
2018-09-30T13:05:51.343Z,16.40
2018-09-30T13:08:54.490Z,16.40
2018-09-30T13:11:57.622Z,16.40
2018-09-30T13:15:00.733Z,16.40
2018-09-30T13:18:03.878Z,16.40
2018-09-30T13:21:07.073Z,16.40
2018-09-30T13:24:10.163Z,16.40
2018-09-30T13:27:13.308Z,16.40
2018-09-30T13:30:16.426Z,16.40
2018-09-30T13:33:19.595Z,16.30
2018-09-30T13:36:22.785Z,16.30
2018-09-30T13:39:25.950Z,16.40
2018-09-30T13:42:29.129Z,16.40
2018-09-30T13:45:32.298Z,16.40
2018-09-30T13:48:35.435Z,16.30
2018-09-30T13:51:38.578Z,16.30
2018-09-30T13:54:41.738Z,16.30
2018-09-30T13:57:44.866Z,16.30
2018-09-30T14:00:47.985Z,16.30
2018-09-30T14:03:51.747Z,16.30
2018-09-30T14:06:54.934Z,16.30
2018-09-30T14:09:58.116Z,16.30
2018-09-30T14:13:01.297Z,16.20
2018-09-30T14:16:04.386Z,16.20
2018-09-30T14:19:07.675Z,16.20
2018-09-30T14:22:10.842Z,16.20
2018-09-30T14:25:13.950Z,16.20
2018-09-30T14:28:17.090Z,16.20
2018-09-30T14:31:20.226Z,16.10
2018-09-30T14:34:23.330Z,16.10
2018-09-30T14:37:26.498Z,16.10
2018-09-30T14:40:29.626Z,16.10
2018-09-30T14:43:32.763Z,16.10
2018-09-30T14:46:36.217Z,16.10
2018-09-30T14:49:39.345Z,16.10
2018-09-30T14:52:42.579Z,16.10
2018-09-30T14:55:45.705Z,16.10
2018-09-30T14:58:48.830Z,16.00
2018-09-30T15:01:51.950Z,16.00
2018-09-30T15:04:55.109Z,16.00
2018-09-30T15:08:03.412Z,16.00
2018-09-30T15:11:06.558Z,16.00
2018-09-30T15:14:10.774Z,15.90
2018-09-30T15:17:13.923Z,16.00
2018-09-30T15:20:17.028Z,15.90
2018-09-30T15:23:20.151Z,15.90
2018-09-30T15:26:23.274Z,15.90
2018-09-30T15:29:26.415Z,15.90
2018-09-30T15:32:29.533Z,15.80
2018-09-30T15:35:32.698Z,15.80
2018-09-30T15:38:35.883Z,15.70
2018-09-30T15:41:39.425Z,15.60
2018-09-30T15:44:42.607Z,15.60
2018-09-30T15:47:45.722Z,15.60
2018-09-30T15:50:48.822Z,15.60
2018-09-30T15:53:51.963Z,15.50
2018-09-30T15:56:55.034Z,15.40
2018-09-30T15:59:58.178Z,15.40
2018-09-30T16:03:01.398Z,15.40
2018-09-30T16:06:04.530Z,15.40
2018-09-30T16:09:08.101Z,15.40
2018-09-30T16:12:11.212Z,15.40
2018-09-30T16:15:14.338Z,15.30
2018-09-30T16:18:17.458Z,15.30
2018-09-30T16:21:20.585Z,15.20
2018-09-30T16:24:23.734Z,15.10
2018-09-30T16:27:26.957Z,15.00
2018-09-30T16:30:30.050Z,14.90
2018-09-30T16:33:33.186Z,14.80
2018-09-30T16:36:36.306Z,14.70
2018-09-30T16:39:39.442Z,14.60
2018-09-30T16:42:42.539Z,14.50
2018-09-30T16:45:45.646Z,14.40
2018-09-30T16:48:49.332Z,14.30
2018-09-30T16:51:52.474Z,14.10
2018-09-30T16:54:55.821Z,14.00
2018-09-30T16:57:58.924Z,13.80
2018-09-30T17:01:02.066Z,13.70
2018-09-30T17:04:05.204Z,13.50
2018-09-30T17:07:08.361Z,13.40
2018-09-30T17:10:11.502Z,13.30
2018-09-30T17:13:14.598Z,13.10
2018-09-30T17:16:17.853Z,13.00
2018-09-30T17:19:21.014Z,12.90
2018-09-30T17:22:24.125Z,12.80
2018-09-30T17:25:27.271Z,12.70
2018-09-30T17:28:30.350Z,12.60
2018-09-30T17:31:33.474Z,12.50
2018-09-30T17:34:36.537Z,12.50
2018-09-30T17:37:39.742Z,12.50
2018-09-30T17:40:42.864Z,12.40
2018-09-30T17:43:46.078Z,12.30
2018-09-30T17:46:49.136Z,12.20
2018-09-30T17:49:52.238Z,12.10
2018-09-30T17:52:55.353Z,12.00
2018-09-30T17:55:58.474Z,11.80
2018-09-30T17:59:01.682Z,11.80
2018-09-30T18:02:04.870Z,11.70
2018-09-30T18:05:08.002Z,11.70
2018-09-30T18:08:11.111Z,11.70
2018-09-30T18:11:14.291Z,11.70
2018-09-30T18:14:17.394Z,11.70
2018-09-30T18:17:20.595Z,11.80
2018-09-30T18:20:23.874Z,11.70
2018-09-30T18:23:27.191Z,11.60
2018-09-30T18:26:30.319Z,11.50
2018-09-30T18:29:33.458Z,11.50
2018-09-30T18:32:36.550Z,11.50
2018-09-30T18:35:39.678Z,11.50
2018-09-30T18:38:42.806Z,11.50
2018-09-30T18:41:45.955Z,11.50
2018-09-30T18:44:49.079Z,11.50
2018-09-30T18:47:52.198Z,11.40
2018-09-30T18:50:55.323Z,11.40
2018-09-30T18:53:58.433Z,11.40
2018-09-30T18:57:01.575Z,11.30
2018-09-30T19:00:04.706Z,11.20
2018-09-30T19:03:07.811Z,11.20
2018-09-30T19:06:10.942Z,11.10
2018-09-30T19:12:33.482Z,11.20
2018-09-30T19:15:36.606Z,11.30
2018-09-30T19:18:41.070Z,11.40
2018-09-30T19:21:46.297Z,11.50
2018-09-30T19:24:49.475Z,11.60
2018-09-30T19:27:54.483Z,11.60
2018-09-30T19:30:57.611Z,11.70
2018-09-30T19:34:00.715Z,11.70
2018-09-30T19:37:03.893Z,11.80
2018-09-30T19:40:07.268Z,11.80
2018-09-30T19:43:11.915Z,11.80
2018-09-30T19:46:15.080Z,11.80
2018-09-30T19:49:18.194Z,11.80
2018-09-30T19:52:21.391Z,11.80
2018-09-30T19:55:25.664Z,11.80
2018-09-30T19:58:29.059Z,11.80
2018-09-30T20:01:32.174Z,11.80
2018-09-30T20:04:35.318Z,11.80
2018-09-30T20:07:39.652Z,11.80
2018-09-30T20:10:44.559Z,11.70
2018-09-30T20:14:00.139Z,11.60
2018-09-30T20:17:03.271Z,11.60
2018-09-30T20:20:06.381Z,11.50
2018-09-30T20:23:09.506Z,11.50
2018-09-30T20:26:12.614Z,11.40
2018-09-30T20:29:15.740Z,11.40
2018-09-30T20:32:18.846Z,11.40
2018-09-30T20:35:21.934Z,11.40
2018-09-30T20:38:25.074Z,11.30
2018-09-30T20:41:28.194Z,11.30
2018-09-30T20:44:31.282Z,11.30
2018-09-30T20:47:34.434Z,11.30
2018-09-30T20:50:37.559Z,11.30
2018-09-30T20:53:40.706Z,11.30
2018-09-30T20:56:43.838Z,11.20
2018-09-30T20:59:46.938Z,11.30
2018-09-30T21:02:50.233Z,11.20
2018-09-30T21:06:09.810Z,11.20
2018-09-30T21:09:15.165Z,11.20
2018-09-30T21:12:18.298Z,11.10
2018-09-30T21:15:21.425Z,11.10
2018-09-30T21:18:24.603Z,11.10
2018-09-30T21:21:27.747Z,11.10
2018-09-30T21:24:30.914Z,11.00
2018-09-30T21:27:34.047Z,11.00
2018-09-30T21:30:37.158Z,11.00
2018-09-30T21:33:40.294Z,11.00
2018-09-30T21:36:43.394Z,11.00
2018-09-30T21:39:46.517Z,11.00
2018-09-30T21:42:49.625Z,11.00
2018-09-30T21:45:52.786Z,11.00
2018-09-30T21:48:55.908Z,11.00
2018-09-30T21:51:59.049Z,10.90
2018-09-30T21:55:02.225Z,10.90
2018-09-30T21:58:05.585Z,10.80
2018-09-30T22:01:08.971Z,10.70
2018-09-30T22:04:12.082Z,10.70
2018-09-30T22:07:15.215Z,10.60
2018-09-30T22:10:18.343Z,10.50
2018-09-30T22:13:21.458Z,10.50
2018-09-30T22:16:24.622Z,10.30
2018-09-30T22:19:27.852Z,10.30
2018-09-30T22:22:30.861Z,10.30
2018-09-30T22:25:33.995Z,10.30
2018-09-30T22:28:37.095Z,10.30
2018-09-30T22:31:47.011Z,10.40
2018-09-30T22:34:50.145Z,10.30
2018-09-30T22:37:53.299Z,10.10
2018-09-30T22:40:56.438Z,10.00
2018-09-30T22:43:59.513Z,9.90
2018-09-30T22:47:02.619Z,9.90
2018-09-30T22:50:05.954Z,9.80
2018-09-30T22:53:09.095Z,9.80
2018-09-30T22:56:12.172Z,9.80
2018-09-30T22:59:15.254Z,9.60
2018-09-30T23:02:18.410Z,9.60
2018-09-30T23:05:21.522Z,9.50
2018-09-30T23:08:24.618Z,9.50
2018-09-30T23:11:27.714Z,9.40
2018-09-30T23:14:30.824Z,9.20
2018-09-30T23:17:33.930Z,9.10
2018-09-30T23:20:37.066Z,8.90
2018-09-30T23:23:40.170Z,8.90
2018-09-30T23:26:43.467Z,8.90
2018-09-30T23:29:46.579Z,8.80
2018-09-30T23:32:49.683Z,8.70
2018-09-30T23:35:52.833Z,8.60
2018-09-30T23:38:55.963Z,8.50
2018-09-30T23:41:59.074Z,8.30
2018-09-30T23:45:02.178Z,8.30
2018-09-30T23:48:05.306Z,8.30
2018-09-30T23:51:08.419Z,8.30
2018-09-30T23:54:11.534Z,8.20
2018-09-30T23:57:14.658Z,8.20
